Guilford, Kansas
Current Conditions -  °F | °C
As of 11:52 AM on Sunday 21 Dec 2014 (Local Time) from KCNU Reporting Station
Overcast Overcast  
Wind Chill:   Ceiling: 1100
Heat Index:   Visibility: 8mi
Dew Point:   Wind: 16mph
Humidity: 90%   Direction: 180°S
Pressure: 29.96"   Gusts: NA
Location:  37.5152°N, 95.6341°W
Report Text: KCNU 211752Z AUTO 18014KT 8SM OVC011 07/06 A2996 RMK AO2 SLP148 T00720056 10072 20044 58030
Loading
Personal Weather Stations






























Interactive Weather Map New forecast layout! Learn more

10-Day Weather Forecast

Advertisements
Track Severe Weather on mobile